Terminal Aerodrome Forecast
Issued by NWS El Paso, TX

Home | Current Version | Previous Version | Text Only | Print | Product List | Glossary On
Versions: 1 2 3 4 5 6 7 8 9 10 11 12 13 14
000
FTUS44 KEPZ 102300
TAFELP
TAF
KELP 102334Z 1100/1124 12007KT P6SM VCTS SCT090CB SCT130 BKN250
      TEMPO 1100/1102 VRB25G40KT -TSRA BKN070CB OVC100
     FM110200 10010KT P6SM FEW090 BKN250
     FM111800 10007KT P6SM SCT090 BKN250=

USA.gov is the U.S. government's official web portal to all federal, state and local government web resources and services.